x

Dunkirk, Ny (dbln6) Weather Station

2:00am - Mon 25th Jul 2016 All times are CDT. -5 hours from GMT.

  • Wind
    9mph, 13mph gusts
  • Air Temp 76°f
  • Sea Pressure 1012.2mb
  • Dunkirk, Ny
  • Dunkirk, Ny

More Historic Weather Station data

Upgrade to MSW Pro to gain access to the past 30 days of data for over 8000 Wavebouys and Weather Stations around the globe.

Join Pro

Comparision Forecast

View Surf forecast
   
Mon 07/25 2:00am 9 13 mph 1012.2mb 76f
1:00am 9 11 mph 1012.5mb 76f
12:00am 8 11 mph 1012.9mb 76f
Sun 07/24 11:00pm 7 8 mph 1013.4mb 75f
10:00pm 5 8 mph 1014mb 75f
9:00pm 6 7 mph 1014.1mb 76f
8:00pm 5 6 mph 1014.6mb 76f
7:00pm 7 9 mph 1014.5mb 78f
6:00pm 8 10 mph 1014.4mb 77f
5:00pm  -  1 mph 1014mb 79f
4:00pm 5
mph
1014.2mb 77f
3:00pm 3
mph
1014.4mb 77f
2:00pm 2
mph
1014.8mb 78f
1:00pm 2
mph
1015mb 78f
12:00pm 6 8 mph 1015.8mb 76f
11:00am  -  2 mph 1016mb 77f
10:00am 3 5 mph 1016.4mb 75f
9:00am 6 7 mph 1016mb 74f
8:00am 2 3 mph 1015.8mb 77f
7:00am 1 2 mph 1016.2mb 74f
6:00am 3 5 mph 1016.1mb 71f
5:00am 5 7 mph 1016.3mb 68f
4:00am 6 7 mph 1015.6mb 69f
3:00am 7 8 mph 1015.4mb 70f
2:00am 5 6 mph 1015.4mb 72f
1:00am 5 6 mph 1015.5mb 73f
12:00am 3
mph
1015.7mb 75f
Sat 07/23 11:00pm 2 3 mph 1015.3mb 77f
10:00pm 11 16 mph 1015mb 78f
9:00pm 10 13 mph 1014.2mb 78f
8:00pm 13 16 mph 1013.7mb 78f
7:00pm 13 16 mph 1013.3mb 79f
6:00pm 16 17 mph 1013.2mb 80f
5:00pm 14 16 mph 1013.6mb 80f
4:00pm 11 14 mph 1013.7mb 80f
3:00pm 13 15 mph 1014.1mb 80f
2:00pm 11 15 mph 1014.2mb 80f
1:00pm 10 11 mph 1014.6mb 79f
12:00pm 7 9 mph 1014.7mb 78f
11:00am 7 9 mph 1014.8mb 77f
10:00am 10 14 mph 1014.4mb 78f
9:00am 11 16 mph 1014.3mb 77f
8:00am 8 9 mph 1014.3mb 77f
7:00am 7 9 mph 1014mb 75f
6:00am 5 7 mph 1014.1mb 74f
5:00am 6 7 mph 1013.8mb 74f
4:00am 7 10 mph 1013.5mb 74f
3:00am 7 8 mph 1013.2mb 75f
2:00am 8 13 mph 1013.1mb 76f
1:00am 10 13 mph 1012.7mb 76f
12:00am 9 14 mph 1012.7mb 76f
Fri 07/22 11:00pm 6 9 mph 1013.1mb 75f
10:00pm  -  1 mph 1012.9mb 77f
9:00pm 10 13 mph 1012.7mb 77f
8:00pm 16 18 mph 1011.8mb 77f
7:00pm 16 20 mph 1012mb 78f
6:00pm 20 24 mph 1011.5mb 78f
5:00pm 24 30 mph 1011.6mb 78f
4:00pm 21 26 mph 1012.5mb 78f
3:00pm 16 21 mph 1013mb 77f
2:00pm 21 25 mph 1013.2mb 77f
1:00pm 18 23 mph 1013.5mb 76f
12:00pm 21 26 mph 1013.2mb 76f
11:00am 17 22 mph 1013.3mb 77f
10:00am 15 21 mph 1013.5mb 78f
9:00am 11 15 mph 1013.9mb 77f
8:00am 8 13 mph 1013.9mb 75f
7:00am 8 15 mph 1013.6mb 73f
6:00am 18 24 mph 1013.6mb 73f
5:00am 21 28 mph 1012.6mb 74f
4:00am 9 13 mph 1011.9mb 78f
3:00am 21 25 mph 1012.8mb 78f
2:00am 18 22 mph 1013.4mb 79f
1:00am 20 22 mph 1013.1mb 80f
12:00am 15 18 mph 1013.6mb 81f
Thu 07/21 11:00pm 10 16 mph 1013.4mb 82f
10:00pm 6 11 mph 1014.3mb 82f
9:00pm 8 15 mph 1014.2mb 82f
8:00pm 7 11 mph 1014.6mb 82f
7:00pm 6 9 mph 1015mb 82f
6:00pm 14 17 mph 1015.6mb 81f
5:00pm 13 15 mph 1016.2mb 79f
4:00pm 11 14 mph 1016.8mb 78f
3:00pm 10 13 mph 1017.4mb 79f
2:00pm 7 9 mph 1018.4mb 79f
1:00pm 8 9 mph 1019.2mb 78f
12:00pm 8 9 mph 1019.7mb 79f
11:00am 6 7 mph 1020.3mb 77f
10:00am 7 9 mph 1020.6mb 76f
9:00am 9 11 mph 1020.7mb 75f